Carson Sink, Nevada Weather observations

Data are for observation ending at time listed.
 Day   Time    Ave.   Ave.  Ave.  Vector   Max.   Stn.    Total    Solar   Ave.  
  of    of     Air    Rel.  Wind   Wind    Wind   Baro.  Precip.   Rad.    Soil  
Year   Day     Temp.  Hum.  Speed  Dir.    Gust   Pres.                    Temp. 
2015   (PST)    F      %     mph   deg.    mph     mb.     in.     W/m2     F   
------------------------------------------------------------------------------
 182    0:00   80.8    30    7.1   298      8.8   883.1    0.00       0     95.1
 182    0:10   79.4    33    6.9   299      9.0   883.2    0.00       0     94.9
 182    0:20   79.1    34    5.5   274      8.2   883.2    0.00       0     94.7
 182    0:30   79.3    33    5.8   254      9.3   883.3    0.00       0     94.4
 182    0:40   81.0    30    9.1   230     11.4   883.2    0.00       0     94.3
 182    0:50   80.7    30    7.7   232      9.7   883.1    0.00       0     94.1
 182    1:00   79.7    31    5.4   239      7.2   883.0    0.00       0     93.8
 182    1:10   78.7    32    4.1   228      5.0   882.9    0.00       0     93.6
 182    1:20   78.6    33    5.1   183      8.4   882.9    0.00       0     93.4
 182    1:30   79.4    33    7.4   171      9.9   882.8    0.00       0     93.2
 182    1:40   78.9    34    6.3   166      9.6   882.8    0.00       0     93.0
 182    1:50   78.5    35    7.5   168     10.4   882.8    0.00       0     92.8
 182    2:00   78.0    35    7.3   182      9.4   882.8    0.00       0     92.6
 182    2:10   77.6    36    7.7   196     10.5   882.7    0.00       0     92.4
 182    2:20   77.4    37    8.0   208     11.0   882.6    0.00       0     92.2
 182    2:30  999.0   999  999.0   999    999.0   999.0   999.00     999    999.0
 182    2:40  999.0   999  999.0   999    999.0   999.0   999.00     999    999.0
 182    2:50  999.0   999  999.0   999    999.0   999.0   999.00     999    999.0
 182    3:00  999.0   999  999.0   999    999.0   999.0   999.00     999    999.0
 182    3:10  999.0   999  999.0   999    999.0   999.0   999.00     999    999.0
 182    3:20  999.0   999  999.0   999    999.0   999.0   999.00     999    999.0
 182    3:30   74.9    41    5.2   214      7.0   882.7    0.00       0     91.0
 182    3:40   74.6    42    5.7   199      8.0   882.6    0.00       0     90.8
 182    3:50   73.7    42    5.9   295      8.0   882.8    0.00       0     90.6
 182    4:00   73.1    43    4.8   290      6.6   882.9    0.00       0     90.5
 182    4:10   73.0    42    3.7   288      4.5   883.0    0.00       0     90.3
 182    4:20  999.0   999  999.0   999    999.0   999.0   999.00     999    999.0
 182    4:30   72.7    44    2.9   267      4.0   883.0    0.00       1     89.9
 182    4:40   72.6    44    2.7   259      3.7   883.2    0.00       4     89.8
 182    4:50   72.4    44    1.7   280      2.4   883.2    0.00      13     89.6
 182    5:00   72.2    44    2.9   335      4.0   883.3    0.00      20     89.4
 182    5:10   72.2    46    3.9   343      4.5   883.4    0.00      31     89.3
 182    5:20   72.9    45    3.0   331      4.3   883.5    0.00      43     89.1
 182    5:30   73.5    44    3.7   305      5.3   883.6    0.00      55     89.0
 182    5:40   73.9    43    4.4   325      5.3   883.6    0.00      71     88.8
 182    5:50   74.0    43    4.2   328      4.8   883.7    0.00     103     88.6
 182    6:00   74.7    42    3.9   316      4.7   883.7    0.00     154     88.5
 182    6:10   75.2    41    4.3   320      5.3   883.9    0.00     236     88.4
 182    6:20   75.9    41    5.2   339      6.6   883.9    0.00     297     88.3
 182    6:30   76.0    41    5.9   348      7.2   883.9    0.00     253     88.1
 182    6:40   76.6    40    4.0   357      5.9   884.0    0.00     220     88.1
 182    6:50   76.9    40    2.9    30      4.2   884.1    0.00     209     88.0
 182    7:00   77.3    39    2.1    51      3.5   884.2    0.00     248     88.0
 182    7:10   78.1    38    2.2    39      4.3   884.2    0.00     310     87.9
 182    7:20   78.7    37    1.4    26      3.1   884.3    0.00     327     87.9
 182    7:30   80.2    35    0.8    49      2.3   884.3    0.00     375     87.9
 182    7:40   81.6    33    0.7   130      3.7   884.4    0.00     438     87.9
 182    7:50   81.7    33    0.9   130      2.6   884.4    0.00     432     87.9
 182    8:00   81.6    33    1.5    93      3.2   884.4    0.00     397     88.0
 182    8:10   81.6    33    2.5   142      5.3   884.3    0.00     561     88.1
 182    8:20   82.9    31    3.4   171      6.5   884.3    0.00     612     88.1
 182    8:30   83.9    30    3.6   179     10.2   884.2    0.00     702     88.2
 182    8:40   84.8    29    6.6   178     11.0   884.1    0.00     723     88.4
 182    8:50   85.7    28    8.9   202     13.3   884.1    0.00     708     88.6
 182    9:00   86.2    27    8.5   209     13.2   884.0    0.00     733     88.7
 182    9:10   86.6    27    7.6   202     11.1   884.1    0.00     753     89.0
 182    9:20   87.3    26    8.7   200     12.9   884.0    0.00     671     89.2
 182    9:30   87.4    26    8.8   210     14.1   883.9    0.00     672     89.5
 182    9:40   88.0    25    8.2   215     12.3   883.9    0.00     719     89.7
 182    9:50   88.3    25    7.4   214     15.3   883.8    0.00     747     90.0
 182   10:00   89.1    24    6.5   216     10.7   883.7    0.00     735     90.3
 182   10:10   89.4    24    5.7   239     10.7   883.7    0.00     678     90.6
 182   10:20   89.6    23    4.8   224     10.1   883.9    0.00     580     90.8
 182   10:30   90.9    22    4.5   215      8.3   883.8    0.00     616     91.1
 182   10:40   91.6    22    2.9   187      6.7   883.7    0.00     758     91.4
 182   10:50   92.4    20    3.1   206      7.2   883.7    0.00     710     91.7
 182   11:00   92.4    20    3.9   232      8.1   883.6    0.00     706     92.0
 182   11:10   93.4    19    3.7   172      9.2   883.5    0.00     909     92.3
 182   11:20   93.2    18    5.5   179     10.7   883.5    0.00     917     92.6
 182   11:30   93.8    17    3.1   201      7.2   883.5    0.00     868     92.9
 182   11:40   94.6    17    5.9   191     13.3   883.3    0.00     934     93.3
 182   11:50   95.2    17    5.2   200     11.3   883.3    0.00     985     93.6
 182   12:00   95.0    16    7.2   238     13.3   883.2    0.00     699     94.0
 182   12:10   94.1    17    6.5   272     10.1   883.0    0.00     788     94.4
 182   12:20   95.0    16    3.3   241      9.3   882.9    0.00     918     94.8
 182   12:30   95.9    16    2.0   276      6.3   882.7    0.00     952     95.2
 182   12:40   96.1    15    3.9    65      6.6   882.6    0.00     978     95.5
 182   12:50   96.9    15    3.2   130      7.7   882.5    0.00     921     95.9
 182   13:00   98.3    14    3.4   224      7.8   882.4    0.00     999     96.3
 182   13:10   98.7    14    3.8   222      6.6   882.2    0.00     942     96.7
 182   13:20   98.6    14    3.8   109      8.7   882.2    0.00     985     97.1
 182   13:30   97.4    14    4.3    73      8.4   882.1    0.00     776     97.6
 182   13:40   98.7    14    3.0   356      6.1   881.9    0.00     882     97.9
 182   13:50  100.1    13    7.5   193     14.0   881.8    0.00     746     98.3
 182   14:00   98.7    14    7.8   199     13.4   881.7    0.00     470     98.7
 182   14:10   99.1    13    5.9   177     11.0   881.6    0.00     581     99.0
 182   14:20   98.7    13    4.6   197      9.1   881.4    0.00     467     99.3
 182   14:30   99.7    13    4.2   202      9.2   881.2    0.00     765     99.6
 182   14:40  100.4    13    6.5   248     12.7   881.1    0.00     827     99.9
 182   14:50   99.8    13    3.5   208     10.2   881.0    0.00     767    100.2
 182   15:00  100.8    12    3.2   176     12.0   880.8    0.00     758    100.4
 182   15:10  101.1    12    6.1   181     17.0   880.7    0.00     690    100.6
 182   15:20  100.4    12    5.0   221     12.6   880.6    0.00     649    100.8
 182   15:30  101.1    12    3.6   215      9.1   880.5    0.00     627    101.0
 182   15:40  101.7    12    5.5     7     11.1   880.4    0.00     596    101.2
 182   15:50  101.6    12    2.6   271      9.1   880.4    0.00     578    101.5
 182   16:00  101.0    12    7.9   287     12.8   880.4    0.00     557    101.7
 182   16:10  100.5    12    8.3   253     12.6   880.3    0.00     473    101.8
 182   16:20  100.4    12    3.6   318      7.1   880.3    0.00     406    102.0
 182   16:30  100.5    12    6.1    10     11.3   880.1    0.00     409    102.2
 182   16:40  101.0    12    4.7   265     10.5   880.0    0.00     397    102.4
 182   16:50  101.4    12    5.1   257     17.2   879.8    0.00     416    102.5
 182   17:00  100.6    12    5.6    20     11.0   880.0    0.00     383    102.6
 182   17:10  100.7    12    4.5    16      9.0   879.9    0.00     357    102.7
 182   17:20  100.5    12    4.6    46      9.0   879.8    0.00     323    102.7
 182   17:30  100.7    12    5.8     5     11.0   879.8    0.00     313    102.7
 182   17:40  101.0    12    6.1   357      9.5   879.7    0.00     285    102.8
 182   17:50  100.7    12    5.0    59     11.0   879.7    0.00     254    102.7
 182   18:00  100.7    12    5.9    14     10.7   879.8    0.00     228    102.7
 182   18:10  100.4    12    8.5   355     14.3   879.8    0.00     192    102.7
 182   18:20  100.8    12    6.1   299     10.4   879.9    0.00     187    102.6
 182   18:30  100.9    12    2.5   282      6.2   879.9    0.00     124    102.5
 182   18:40  100.1    12    4.9   338      7.2   879.9    0.00      75    102.4
 182   18:50   99.8    12    4.5   340      7.5   879.9    0.00      59    102.3
 182   19:00   99.6    12    5.8   306      9.3   879.9    0.00      38    102.2
 182   19:10   99.5    12    6.7   328     12.0   880.1    0.00      17    102.1
 182   19:20   96.9    15   16.9   344     21.9   880.3    0.00       7    101.9
 182   19:30   95.5    16   22.7   348     28.6   880.3    0.00       2    101.8
 182   19:40   94.8    16   22.7   339     28.4   880.5    0.00       5    101.5
 182   19:50   94.3    16   21.4   342     26.8   880.6    0.00       1    101.3
 182   20:00   93.6    16   16.4   338     20.2   880.7    0.00       0    101.1
 182   20:10   93.7    16   14.7   344     18.8   880.7    0.00       0    100.9
 182   20:20   93.8    15   13.3   341     16.4   880.8    0.00       0    100.7
 182   20:30   93.3    16   11.7    18     14.7   881.0    0.00       0    100.5
 182   20:40   93.1    16   13.8    68     28.4   881.1    0.00       0    100.3
 182   20:50   94.2    15   13.8    62     28.2   881.2    0.00       0    100.1
 182   21:00   93.4    16    8.9    54     13.7   881.4    0.00       0     99.8
 182   21:10   92.8    17    8.8    79     13.4   881.4    0.00       0     99.6
 182   21:20   92.9    17    7.5   125     13.0   881.6    0.00       0     99.4
 182   21:30   92.9    17    8.4   141     16.9   881.8    0.00       0     99.2
 182   21:40   92.8    16   11.2   152     16.1   881.9    0.00       0     98.9
 182   21:50   92.6    17    6.5   135     11.1   882.4    0.00       0     98.7
 182   22:00   91.0    23   16.5   141     27.9   882.3    0.00       0     98.5
 182   22:10   90.5    22   13.4   155     21.8   882.4    0.00       0     98.3
 182   22:20   90.1    23   20.7   185     30.9   882.2    0.00       0     98.0
 182   22:30   88.8    25   20.8   191     42.8   882.3    0.00       0     97.8
 182   22:40   87.3    27   21.2   186     28.6   882.5    0.00       0     97.6
 182   22:50   86.9    28   22.2   191     33.1   882.5    0.00       0     97.5
 182   23:00   86.3    29   24.1   201     30.3   882.6    0.00       0     97.3
 182   23:10   85.8    29   25.8   207     31.9   882.6    0.00       0     97.1
 182   23:20   84.3    32   28.5   206     35.8   882.6    0.00       0     96.9

Return to Carson Sink graphs page.


Western Regional Climate Center,wrcc@dri.edu